createdAt,value
2019-04-14T00:00:55.310Z,32.28
2019-04-14T00:02:20.491Z,31.65
2019-04-14T00:03:34.657Z,30.20
2019-04-14T00:04:42.912Z,31.50
2019-04-14T00:05:49.729Z,31.73
2019-04-14T00:06:54.772Z,32.15
2019-04-14T00:08:00.239Z,33.08
2019-04-14T00:09:05.888Z,30.90
2019-04-14T00:10:11.434Z,31.48
2019-04-14T00:11:16.829Z,32.13
2019-04-14T00:12:20.893Z,32.05
2019-04-14T00:13:26.223Z,32.83
2019-04-14T00:14:31.487Z,32.03
2019-04-14T00:15:41.077Z,32.20
2019-04-14T00:16:42.450Z,31.62
2019-04-14T00:17:47.650Z,32.05
2019-04-14T00:18:51.894Z,31.90
2019-04-14T00:19:56.652Z,32.40
2019-04-14T00:21:00.643Z,32.78
2019-04-14T00:22:05.433Z,32.23
2019-04-14T00:23:10.794Z,32.83
2019-04-14T00:24:16.191Z,31.97
2019-04-14T00:25:21.547Z,32.10
2019-04-14T00:26:29.370Z,32.08
2019-04-14T00:27:34.542Z,32.08
2019-04-14T00:28:38.746Z,32.48
2019-04-14T00:29:43.667Z,32.58
2019-04-14T00:30:47.556Z,31.37
2019-04-14T00:31:53.857Z,32.93
2019-04-14T00:33:01.814Z,33.18
2019-04-14T00:34:13.790Z,34.27
2019-04-14T00:35:47.055Z,30.90
2019-04-14T00:37:10.439Z,31.90
2019-04-14T00:38:34.556Z,32.33
2019-04-14T00:39:42.221Z,33.88
2019-04-14T00:40:53.985Z,34.45
2019-04-14T00:42:05.360Z,33.20
2019-04-14T00:43:31.452Z,34.05
2019-04-14T00:44:53.860Z,34.05
2019-04-14T00:46:03.006Z,32.60
2019-04-14T00:47:15.898Z,32.00
2019-04-14T00:48:24.172Z,32.35
2019-04-14T00:49:29.047Z,34.30
2019-04-14T00:50:34.183Z,33.92
2019-04-14T00:51:40.611Z,33.20
2019-04-14T00:52:44.321Z,33.35
2019-04-14T00:53:49.135Z,33.60
2019-04-14T00:54:54.247Z,32.80
2019-04-14T00:55:59.529Z,33.28
2019-04-14T00:57:05.149Z,33.20
2019-04-14T00:58:10.363Z,32.70
2019-04-14T00:59:14.317Z,34.85
2019-04-14T01:00:19.318Z,34.05
2019-04-14T01:01:24.458Z,33.73
2019-04-14T01:02:29.603Z,33.23
2019-04-14T01:03:35.192Z,34.50
2019-04-14T01:04:40.501Z,35.23
2019-04-14T01:05:45.780Z,33.98
2019-04-14T01:06:51.156Z,34.15
2019-04-14T01:07:56.576Z,34.05
2019-04-14T01:09:00.697Z,33.65
2019-04-14T01:10:06.026Z,34.58
2019-04-14T01:11:11.637Z,35.03
2019-04-14T01:12:17.097Z,34.08
2019-04-14T01:13:22.206Z,34.63
2019-04-14T01:14:27.687Z,33.23
2019-04-14T01:15:47.145Z,33.48
2019-04-14T01:16:38.592Z,32.75
2019-04-14T01:17:43.790Z,33.38
2019-04-14T01:18:49.318Z,33.53
2019-04-14T01:19:54.815Z,35.13
2019-04-14T01:21:00.178Z,33.15
2019-04-14T01:22:05.344Z,34.60
2019-04-14T01:23:10.571Z,35.20
2019-04-14T01:24:14.937Z,35.43
2019-04-14T01:25:19.393Z,34.70
2019-04-14T01:26:24.650Z,33.38
2019-04-14T01:27:29.932Z,34.92
2019-04-14T01:28:33.975Z,34.15
2019-04-14T01:29:38.519Z,34.53
2019-04-14T01:30:43.730Z,35.88
2019-04-14T01:31:47.632Z,34.53
2019-04-14T01:32:52.217Z,35.13
2019-04-14T01:33:56.136Z,34.50
2019-04-14T01:35:00.989Z,34.05
2019-04-14T01:36:06.110Z,34.13
2019-04-14T01:37:11.501Z,34.55
2019-04-14T01:38:16.867Z,34.33
2019-04-14T01:39:22.079Z,34.60
2019-04-14T01:40:27.094Z,34.83
2019-04-14T01:41:32.457Z,35.17
2019-04-14T01:42:37.746Z,35.23
2019-04-14T01:43:42.733Z,36.00
2019-04-14T01:44:48.123Z,35.73
2019-04-14T01:46:04.225Z,35.80
2019-04-14T01:46:58.875Z,34.98
2019-04-14T01:48:03.865Z,35.10
2019-04-14T01:49:07.699Z,35.50
2019-04-14T01:50:12.773Z,36.42
2019-04-14T01:51:24.653Z,34.58
2019-04-14T01:52:50.191Z,35.85
2019-04-14T01:54:12.762Z,35.15
2019-04-14T01:55:35.234Z,35.20
2019-04-14T01:56:58.056Z,34.83
2019-04-14T01:58:17.056Z,34.92
2019-04-14T01:59:21.957Z,35.55
2019-04-14T02:00:44.972Z,34.73
2019-04-14T02:01:49.929Z,34.53
2019-04-14T02:02:54.032Z,34.73
2019-04-14T02:03:58.492Z,34.73
2019-04-14T02:05:03.885Z,34.98
2019-04-14T02:06:07.814Z,35.00
2019-04-14T02:07:12.306Z,34.00
2019-04-14T02:08:17.752Z,34.25
2019-04-14T02:09:22.888Z,35.00
2019-04-14T02:10:28.042Z,34.58
2019-04-14T02:11:33.376Z,33.90
2019-04-14T02:12:38.768Z,34.95
2019-04-14T02:13:44.239Z,33.23
2019-04-14T02:14:49.408Z,34.53
2019-04-14T02:15:54.735Z,32.90
2019-04-14T02:17:01.351Z,33.45
2019-04-14T02:18:05.631Z,33.58
2019-04-14T02:19:10.907Z,33.60
2019-04-14T02:20:14.932Z,34.13
2019-04-14T02:21:19.511Z,33.85
2019-04-14T02:22:24.542Z,33.73
2019-04-14T02:23:30.155Z,33.18
2019-04-14T02:24:35.213Z,33.48
2019-04-14T02:25:39.021Z,32.83
2019-04-14T02:26:43.843Z,34.23
2019-04-14T02:27:49.240Z,34.55
2019-04-14T02:28:54.895Z,33.50
2019-04-14T02:30:00.180Z,34.05
2019-04-14T02:31:18.086Z,33.28
2019-04-14T02:32:43.658Z,34.18
2019-04-14T02:34:49.563Z,33.13
2019-04-14T02:36:12.098Z,31.93
2019-04-14T02:37:04.529Z,32.25
2019-04-14T02:38:12.304Z,31.93
2019-04-14T02:39:15.887Z,34.13
2019-04-14T02:40:20.831Z,33.05
2019-04-14T02:41:27.957Z,33.67
2019-04-14T02:43:37.701Z,33.95
2019-04-14T02:45:49.450Z,33.92
2019-04-14T02:46:53.441Z,34.38
2019-04-14T02:48:15.196Z,33.60
2019-04-14T02:49:05.750Z,34.92
2019-04-14T02:50:10.942Z,34.80
2019-04-14T02:51:22.989Z,35.83
2019-04-14T02:52:30.007Z,34.43
2019-04-14T02:53:39.393Z,34.70
2019-04-14T02:54:43.634Z,34.83
2019-04-14T02:55:42.225Z,33.92
2019-04-14T02:57:12.474Z,34.55
2019-04-14T02:57:55.516Z,35.85
2019-04-14T03:00:07.903Z,35.68
2019-04-14T03:01:21.287Z,36.45
2019-04-14T03:04:29.363Z,35.20
2019-04-14T03:05:37.638Z,35.95
2019-04-14T03:06:46.031Z,35.55
2019-04-14T03:09:04.686Z,33.85
2019-04-14T03:09:52.433Z,35.92
2019-04-14T03:12:09.411Z,36.00
2019-04-14T03:13:21.369Z,34.30
2019-04-14T03:15:33.274Z,34.58
2019-04-14T03:20:07.099Z,34.92
2019-04-14T03:21:19.758Z,34.55
2019-04-14T03:22:37.163Z,34.83
2019-04-14T03:23:51.884Z,33.83
2019-04-14T03:24:55.815Z,35.45
2019-04-14T03:26:11.859Z,42.00
2019-04-14T03:27:49.836Z,44.00
2019-04-14T03:29:05.404Z,44.83
2019-04-14T03:30:33.589Z,47.15
2019-04-14T03:32:52.982Z,38.30
2019-04-14T03:34:06.224Z,38.38
2019-04-14T03:37:31.117Z,37.58
2019-04-14T03:37:59.183Z,36.95
2019-04-14T03:40:10.086Z,36.85
2019-04-14T03:42:29.686Z,37.73
2019-04-14T03:43:30.982Z,36.58
2019-04-14T03:44:35.262Z,36.83
2019-04-14T03:46:50.788Z,37.48
2019-04-14T03:48:00.630Z,36.48
2019-04-14T03:48:57.899Z,36.33
2019-04-14T03:51:21.201Z,37.08
2019-04-14T03:52:31.973Z,36.40
2019-04-14T03:53:27.715Z,37.78
2019-04-14T03:54:20.165Z,36.85
2019-04-14T03:55:24.061Z,35.45
2019-04-14T03:56:53.369Z,36.53
2019-04-14T03:57:58.427Z,35.43
2019-04-14T03:59:04.121Z,36.48
2019-04-14T04:00:09.495Z,38.17
2019-04-14T04:01:15.098Z,37.78
2019-04-14T04:02:20.475Z,39.75
2019-04-14T04:03:25.976Z,37.98
2019-04-14T04:04:31.582Z,37.17
2019-04-14T04:05:36.720Z,36.50
2019-04-14T04:06:42.069Z,37.20
2019-04-14T04:07:47.487Z,37.65
2019-04-14T04:08:53.082Z,38.30
2019-04-14T04:10:03.014Z,37.53
2019-04-14T04:11:08.331Z,38.20
2019-04-14T04:12:12.471Z,36.48
2019-04-14T04:13:17.212Z,36.75
2019-04-14T04:14:22.359Z,36.50
2019-04-14T04:15:27.883Z,37.35
2019-04-14T04:16:50.972Z,37.53
2019-04-14T04:18:00.874Z,37.63
2019-04-14T04:19:15.526Z,37.33
2019-04-14T04:20:28.753Z,37.73
2019-04-14T04:21:53.040Z,36.17
2019-04-14T04:23:07.469Z,37.28
2019-04-14T04:24:19.237Z,36.55
2019-04-14T04:25:31.315Z,37.55
2019-04-14T04:26:42.868Z,36.65
2019-04-14T04:28:06.422Z,35.58
2019-04-14T04:29:14.355Z,36.53
2019-04-14T04:30:24.060Z,35.75
2019-04-14T04:31:35.092Z,36.85
2019-04-14T04:32:49.346Z,35.60
2019-04-14T04:34:09.816Z,36.80
2019-04-14T04:35:23.966Z,35.17
2019-04-14T04:36:33.480Z,36.85
2019-04-14T04:37:43.361Z,36.65
2019-04-14T04:38:56.033Z,37.60
2019-04-14T04:40:02.973Z,36.95
2019-04-14T04:41:07.940Z,36.35
2019-04-14T04:42:13.316Z,36.60
2019-04-14T04:43:17.231Z,36.45
2019-04-14T04:44:22.406Z,36.98
2019-04-14T04:45:27.784Z,36.73
2019-04-14T04:46:33.098Z,35.60
2019-04-14T04:47:38.287Z,36.40
2019-04-14T04:48:43.680Z,36.00
2019-04-14T04:49:49.027Z,36.58
2019-04-14T04:50:54.208Z,34.85
2019-04-14T04:51:58.242Z,35.98
2019-04-14T04:53:02.751Z,36.38
2019-04-14T04:54:08.083Z,36.38
2019-04-14T04:55:13.192Z,35.88
2019-04-14T04:56:18.678Z,36.08
2019-04-14T04:57:22.584Z,36.00
2019-04-14T04:58:26.431Z,36.58
2019-04-14T04:59:30.672Z,37.17
2019-04-14T05:00:35.265Z,37.75
2019-04-14T05:01:40.760Z,36.03
2019-04-14T05:02:46.055Z,37.50
2019-04-14T05:03:51.388Z,37.33
2019-04-14T05:04:56.626Z,36.17
2019-04-14T05:06:30.941Z,37.17
2019-04-14T05:07:36.242Z,35.85
2019-04-14T05:08:47.958Z,36.58
2019-04-14T05:10:10.915Z,37.08
2019-04-14T05:11:20.904Z,35.78
2019-04-14T05:12:30.605Z,37.08
2019-04-14T05:13:38.161Z,37.55
2019-04-14T05:14:45.935Z,37.88
2019-04-14T05:15:53.722Z,39.48
2019-04-14T05:16:59.257Z,40.58
2019-04-14T05:18:03.099Z,40.28
2019-04-14T05:19:17.176Z,40.67
2019-04-14T05:20:13.803Z,38.95
2019-04-14T05:21:17.727Z,39.18
2019-04-14T05:22:22.990Z,39.50
2019-04-14T05:23:27.796Z,36.58
2019-04-14T05:24:33.201Z,39.25
2019-04-14T05:25:37.157Z,36.98
2019-04-14T05:26:41.794Z,38.05
2019-04-14T05:27:45.618Z,37.93
2019-04-14T05:28:50.658Z,38.15
2019-04-14T05:29:55.839Z,38.28
2019-04-14T05:31:01.326Z,36.68
2019-04-14T05:32:06.570Z,37.15
2019-04-14T05:33:12.086Z,36.38
2019-04-14T05:34:17.224Z,36.77
2019-04-14T05:35:22.643Z,36.48
2019-04-14T05:36:28.126Z,36.17
2019-04-14T05:37:33.313Z,36.40
2019-04-14T05:38:38.524Z,36.90
2019-04-14T05:39:43.950Z,37.95
2019-04-14T05:40:47.967Z,38.75
2019-04-14T05:42:00.323Z,38.70
2019-04-14T05:42:58.179Z,35.88
2019-04-14T05:44:04.780Z,36.25
2019-04-14T05:45:09.204Z,37.08
2019-04-14T05:46:14.154Z,36.60
2019-04-14T05:47:18.032Z,36.98
2019-04-14T05:48:22.862Z,36.48
2019-04-14T05:49:35.274Z,37.48
2019-04-14T05:50:33.540Z,36.15
2019-04-14T05:51:37.488Z,35.68
2019-04-14T05:52:42.610Z,35.63
2019-04-14T05:53:48.077Z,36.98
2019-04-14T05:54:53.642Z,37.53
2019-04-14T05:55:57.827Z,35.40
2019-04-14T05:57:02.455Z,36.77
2019-04-14T05:58:06.454Z,36.38
2019-04-14T05:59:11.356Z,37.20
2019-04-14T06:00:19.488Z,37.53
2019-04-14T06:01:24.740Z,37.65
2019-04-14T06:02:30.550Z,36.77
2019-04-14T06:03:34.823Z,37.15
2019-04-14T06:04:39.671Z,36.48
2019-04-14T06:05:44.936Z,36.55
2019-04-14T06:06:49.839Z,34.13
2019-04-14T06:07:55.505Z,34.90
2019-04-14T06:08:59.793Z,33.63
2019-04-14T06:10:05.045Z,33.25
2019-04-14T06:11:09.236Z,33.73
2019-04-14T06:12:13.796Z,32.88
2019-04-14T06:13:18.430Z,32.80
2019-04-14T06:14:22.605Z,31.65
2019-04-14T06:15:27.127Z,32.50
2019-04-14T06:16:31.047Z,32.17
2019-04-14T06:17:35.407Z,32.10
2019-04-14T06:18:39.789Z,30.72
2019-04-14T06:19:43.604Z,30.15
2019-04-14T06:20:47.456Z,31.42
2019-04-14T06:21:51.368Z,31.07
2019-04-14T06:22:55.940Z,32.00
2019-04-14T06:24:00.796Z,31.02
2019-04-14T06:25:06.731Z,33.05
2019-04-14T06:26:10.893Z,30.92
2019-04-14T06:27:15.333Z,32.20
2019-04-14T06:28:19.604Z,32.42
2019-04-14T06:29:24.037Z,33.18
2019-04-14T06:30:37.205Z,32.05
2019-04-14T06:31:57.450Z,33.18
2019-04-14T06:33:04.336Z,32.05
2019-04-14T06:34:12.567Z,32.03
2019-04-14T06:35:38.907Z,32.23
2019-04-14T06:36:58.358Z,32.75
2019-04-14T06:38:05.972Z,31.75
2019-04-14T06:39:22.403Z,33.05
2019-04-14T06:40:27.657Z,31.17
2019-04-14T06:41:32.062Z,32.28
2019-04-14T06:42:35.914Z,33.02
2019-04-14T06:43:48.586Z,32.67
2019-04-14T06:44:45.948Z,30.52
2019-04-14T06:45:50.033Z,30.82
2019-04-14T06:46:54.363Z,30.23
2019-04-14T06:47:58.215Z,27.87
2019-04-14T06:49:02.323Z,27.73
2019-04-14T06:50:06.902Z,27.73
2019-04-14T06:51:11.232Z,28.67
2019-04-14T06:52:15.826Z,28.90
2019-04-14T06:53:20.187Z,28.98
2019-04-14T06:54:24.429Z,28.25
2019-04-14T06:55:28.565Z,28.52
2019-04-14T06:56:33.165Z,28.25
2019-04-14T06:57:37.672Z,27.65
2019-04-14T06:58:42.287Z,26.07
2019-04-14T06:59:46.464Z,24.20
2019-04-14T07:00:50.700Z,24.70
2019-04-14T07:01:55.210Z,24.18
2019-04-14T07:02:59.436Z,22.58
2019-04-14T07:04:03.869Z,23.73
2019-04-14T07:05:08.136Z,22.82
2019-04-14T07:06:12.654Z,24.15
2019-04-14T07:07:16.855Z,24.65
2019-04-14T07:08:21.040Z,23.27
2019-04-14T07:09:25.474Z,22.75
2019-04-14T07:10:29.983Z,21.00
2019-04-14T07:11:34.248Z,23.32
2019-04-14T07:12:38.542Z,23.75
2019-04-14T07:13:42.768Z,21.85
2019-04-14T07:14:46.926Z,22.02
2019-04-14T07:15:51.524Z,19.50
2019-04-14T07:16:55.444Z,19.02
2019-04-14T07:18:00.035Z,19.23
2019-04-14T07:19:04.164Z,18.02
2019-04-14T07:20:09.419Z,18.37
2019-04-14T07:21:14.294Z,17.95
2019-04-14T07:22:18.919Z,19.45
2019-04-14T07:23:22.783Z,18.90
2019-04-14T07:24:27.217Z,18.55
2019-04-14T07:25:31.383Z,20.12
2019-04-14T07:26:36.071Z,18.77
2019-04-14T07:27:41.013Z,15.63
2019-04-14T07:28:56.107Z,17.73
2019-04-14T07:29:57.295Z,15.38
2019-04-14T07:31:11.980Z,16.55
2019-04-14T07:32:33.560Z,17.02
2019-04-14T07:33:59.848Z,16.37
2019-04-14T07:35:18.489Z,14.58
2019-04-14T07:36:44.357Z,16.05
2019-04-14T07:38:18.363Z,17.48
2019-04-14T07:39:38.160Z,11.85
2019-04-14T07:41:04.454Z,16.23
2019-04-14T07:42:16.194Z,16.90
2019-04-14T07:43:29.184Z,16.77
2019-04-14T07:44:58.418Z,15.35
2019-04-14T07:46:18.881Z,15.95
2019-04-14T07:47:51.773Z,15.55
2019-04-14T07:49:05.037Z,12.88
2019-04-14T07:50:43.421Z,16.82
2019-04-14T07:51:54.731Z,15.43
2019-04-14T07:53:16.548Z,15.72
2019-04-14T07:54:45.698Z,15.28
2019-04-14T07:56:08.573Z,14.70
2019-04-14T07:57:30.097Z,15.80
2019-04-14T07:58:56.203Z,15.23
2019-04-14T08:00:06.896Z,10.18
2019-04-14T08:01:17.119Z,14.63
2019-04-14T08:02:36.381Z,14.50
2019-04-14T08:03:59.304Z,13.85
2019-04-14T08:05:28.579Z,14.87
2019-04-14T08:06:32.833Z,15.43
2019-04-14T08:07:36.688Z,15.75
2019-04-14T08:08:40.617Z,16.30
2019-04-14T08:09:44.560Z,14.43
2019-04-14T08:10:48.985Z,13.58
2019-04-14T08:11:53.542Z,17.57
2019-04-14T08:12:58.171Z,19.67
2019-04-14T08:14:02.813Z,17.45
2019-04-14T08:15:07.218Z,18.95
2019-04-14T08:16:11.252Z,23.92
2019-04-14T08:17:15.106Z,15.30
2019-04-14T08:18:20.024Z,15.00
2019-04-14T08:19:23.964Z,20.30
2019-04-14T08:20:28.313Z,13.98
2019-04-14T08:21:32.265Z,14.70
2019-04-14T08:22:37.021Z,13.35
2019-04-14T08:23:41.470Z,15.13
2019-04-14T08:24:45.488Z,18.50
2019-04-14T08:25:50.400Z,19.40
2019-04-14T08:26:55.303Z,14.03
2019-04-14T08:28:00.016Z,15.00
2019-04-14T08:29:03.954Z,14.75
2019-04-14T08:30:08.463Z,14.10
2019-04-14T08:31:12.760Z,15.30
2019-04-14T08:32:17.111Z,15.05
2019-04-14T08:33:21.448Z,11.15
2019-04-14T08:34:25.368Z,14.98
2019-04-14T08:35:29.987Z,17.05
2019-04-14T08:36:34.425Z,12.82
2019-04-14T08:37:38.390Z,12.25
2019-04-14T08:38:42.748Z,11.50
2019-04-14T08:39:47.184Z,12.37
2019-04-14T08:40:51.624Z,13.45
2019-04-14T08:42:23.652Z,14.78
2019-04-14T08:43:44.742Z,14.63
2019-04-14T08:44:50.650Z,9.80
2019-04-14T08:46:16.812Z,12.65
2019-04-14T08:47:45.508Z,15.08
2019-04-14T08:48:59.906Z,13.50
2019-04-14T08:50:38.936Z,5.20
2019-04-14T08:51:48.049Z,10.43
2019-04-14T08:52:56.948Z,13.48
2019-04-14T08:54:22.897Z,13.32
2019-04-14T08:56:04.404Z,11.28
2019-04-14T08:57:26.172Z,15.93
2019-04-14T08:58:40.800Z,14.38
2019-04-14T08:59:53.621Z,14.25
2019-04-14T09:01:25.582Z,13.60
2019-04-14T09:02:41.857Z,14.33
2019-04-14T09:04:04.207Z,13.88
2019-04-14T09:05:18.349Z,13.98
2019-04-14T09:06:39.220Z,13.68
2019-04-14T09:07:53.337Z,14.50
2019-04-14T09:09:07.327Z,14.35
2019-04-14T09:10:24.036Z,10.03
2019-04-14T09:11:41.819Z,13.83
2019-04-14T09:12:47.678Z,13.20
2019-04-14T09:13:51.857Z,13.75
2019-04-14T09:14:57.512Z,12.65
2019-04-14T09:16:02.120Z,13.78
2019-04-14T09:17:06.624Z,14.58
2019-04-14T09:18:10.722Z,12.20
2019-04-14T09:19:14.566Z,14.70
2019-04-14T09:20:18.833Z,15.08
2019-04-14T09:21:23.067Z,6.97
2019-04-14T09:22:27.265Z,13.25
2019-04-14T09:23:31.434Z,14.40
2019-04-14T09:24:35.278Z,14.30
2019-04-14T09:25:39.673Z,12.43
2019-04-14T09:26:44.086Z,9.30
2019-04-14T09:27:47.937Z,10.50
2019-04-14T09:28:51.860Z,11.00
2019-04-14T09:29:56.489Z,13.65
2019-04-14T09:31:00.538Z,14.23
2019-04-14T09:32:06.679Z,13.13
2019-04-14T09:33:10.828Z,11.93
2019-04-14T09:34:14.746Z,11.85
2019-04-14T09:35:19.162Z,12.90
2019-04-14T09:36:23.168Z,13.85
2019-04-14T09:37:27.295Z,13.85
2019-04-14T09:38:31.702Z,9.75
2019-04-14T09:39:36.203Z,13.30
2019-04-14T09:40:40.136Z,12.43
2019-04-14T09:41:44.726Z,12.40
2019-04-14T09:42:49.106Z,13.70
2019-04-14T09:43:53.608Z,12.73
2019-04-14T09:44:58.137Z,12.93
2019-04-14T09:46:02.757Z,12.70
2019-04-14T09:47:06.748Z,13.53
2019-04-14T09:48:11.595Z,13.53
2019-04-14T09:49:18.546Z,13.62
2019-04-14T09:50:22.133Z,12.90
2019-04-14T09:51:26.147Z,12.90
2019-04-14T09:52:30.746Z,13.35
2019-04-14T09:53:34.668Z,13.10
2019-04-14T09:54:39.348Z,13.50
2019-04-14T09:55:43.393Z,13.00
2019-04-14T09:56:47.623Z,13.62
2019-04-14T09:57:51.499Z,14.05
2019-04-14T09:58:56.093Z,12.85
2019-04-14T10:00:00.597Z,13.85
2019-04-14T10:01:04.701Z,13.70
2019-04-14T10:02:09.109Z,12.90
2019-04-14T10:03:12.966Z,12.85
2019-04-14T10:04:17.097Z,13.45
2019-04-14T10:05:21.732Z,11.75
2019-04-14T10:06:25.661Z,13.62
2019-04-14T10:07:30.444Z,13.55
2019-04-14T10:08:34.767Z,13.72
2019-04-14T10:09:38.691Z,10.08
2019-04-14T10:10:42.922Z,12.93
2019-04-14T10:11:48.730Z,13.55
2019-04-14T10:12:53.119Z,13.60
2019-04-14T10:13:57.540Z,13.35
2019-04-14T10:15:01.739Z,12.53
2019-04-14T10:16:05.645Z,13.38
2019-04-14T10:17:09.516Z,13.88
2019-04-14T10:18:14.041Z,12.70
2019-04-14T10:19:18.059Z,13.38
2019-04-14T10:20:22.372Z,13.03
2019-04-14T10:21:26.371Z,12.98
2019-04-14T10:22:34.049Z,13.22
2019-04-14T10:23:39.423Z,12.75
2019-04-14T10:24:42.745Z,11.33
2019-04-14T10:25:46.602Z,12.93
2019-04-14T10:26:50.826Z,13.50
2019-04-14T10:27:55.086Z,8.63
2019-04-14T10:28:59.374Z,13.40
2019-04-14T10:30:03.503Z,13.70
2019-04-14T10:31:07.694Z,12.28
2019-04-14T10:32:11.895Z,14.38
2019-04-14T10:33:16.344Z,13.95
2019-04-14T10:34:20.439Z,15.85
2019-04-14T10:35:24.529Z,16.15
2019-04-14T10:36:28.701Z,17.67
2019-04-14T10:37:32.621Z,12.35
2019-04-14T10:38:36.555Z,19.57
2019-04-14T10:39:40.910Z,16.52
2019-04-14T10:40:45.002Z,16.17
2019-04-14T10:41:49.092Z,12.28
2019-04-14T10:42:53.221Z,20.27
2019-04-14T10:43:57.888Z,14.10
2019-04-14T10:45:02.222Z,14.45
2019-04-14T10:46:06.469Z,12.40
2019-04-14T10:47:10.965Z,11.65
2019-04-14T10:48:15.251Z,12.40
2019-04-14T10:49:19.582Z,14.05
2019-04-14T10:50:30.802Z,12.95
2019-04-14T10:51:31.535Z,12.00
2019-04-14T10:52:35.651Z,13.18
2019-04-14T10:53:40.277Z,13.15
2019-04-14T10:54:44.229Z,13.98
2019-04-14T10:55:48.228Z,12.50
2019-04-14T10:56:52.500Z,13.65
2019-04-14T10:57:56.969Z,13.13
2019-04-14T10:59:01.188Z,13.80
2019-04-14T11:00:08.200Z,13.60
2019-04-14T11:01:12.228Z,15.10
2019-04-14T11:02:16.224Z,13.75
2019-04-14T11:03:20.356Z,14.07
2019-04-14T11:04:24.273Z,13.70
2019-04-14T11:05:32.081Z,13.85
2019-04-14T11:06:58.029Z,13.58
2019-04-14T11:08:01.885Z,13.60
2019-04-14T11:09:09.356Z,13.48
2019-04-14T11:10:13.800Z,13.03
2019-04-14T11:11:17.992Z,11.03
2019-04-14T11:12:22.632Z,13.48
2019-04-14T11:13:26.932Z,14.55
2019-04-14T11:14:31.224Z,14.20
2019-04-14T11:15:35.436Z,13.22
2019-04-14T11:16:39.442Z,13.03
2019-04-14T11:17:43.548Z,12.78
2019-04-14T11:18:47.753Z,12.75
2019-04-14T11:19:52.031Z,12.93
2019-04-14T11:20:56.023Z,13.32
2019-04-14T11:22:00.477Z,14.53
2019-04-14T11:23:04.500Z,13.03
2019-04-14T11:24:08.741Z,13.40
2019-04-14T11:25:13.568Z,13.80
2019-04-14T11:26:18.080Z,13.55
2019-04-14T11:27:22.308Z,12.75
2019-04-14T11:28:26.196Z,13.50
2019-04-14T11:29:30.161Z,12.25
2019-04-14T11:30:34.022Z,10.78
2019-04-14T11:32:00.037Z,13.68
2019-04-14T11:33:24.159Z,14.35
2019-04-14T11:34:46.272Z,14.15
2019-04-14T11:35:55.694Z,13.93
2019-04-14T11:37:32.731Z,14.15
2019-04-14T11:38:49.540Z,12.95
2019-04-14T11:39:53.651Z,14.00
2019-04-14T11:40:59.499Z,13.93
2019-04-14T11:42:03.417Z,14.58
2019-04-14T11:43:07.269Z,13.78
2019-04-14T11:44:11.544Z,14.15
2019-04-14T11:45:15.685Z,13.80
2019-04-14T11:46:19.929Z,13.72
2019-04-14T11:47:23.906Z,12.55
2019-04-14T11:48:28.341Z,13.38
2019-04-14T11:49:32.429Z,13.10
2019-04-14T11:50:37.192Z,14.38
2019-04-14T11:51:54.413Z,10.75
2019-04-14T11:52:47.496Z,13.95
2019-04-14T11:53:51.803Z,13.93
2019-04-14T11:54:55.653Z,13.20
2019-04-14T11:55:59.829Z,13.50
2019-04-14T11:57:04.521Z,13.55
2019-04-14T11:58:08.826Z,14.07
2019-04-14T11:59:13.175Z,14.00
2019-04-14T12:00:54.391Z,14.18
2019-04-14T12:02:04.979Z,14.33
2019-04-14T12:03:17.157Z,13.25
2019-04-14T12:04:49.379Z,14.45
2019-04-14T12:06:10.996Z,13.85
2019-04-14T12:07:37.565Z,13.50
2019-04-14T12:08:48.820Z,13.58
2019-04-14T12:10:05.200Z,13.15
2019-04-14T12:11:09.300Z,14.20
2019-04-14T12:12:13.434Z,13.13
2019-04-14T12:13:17.636Z,13.35
2019-04-14T12:14:22.252Z,13.70
2019-04-14T12:15:26.968Z,13.62
2019-04-14T12:16:30.905Z,14.40
2019-04-14T12:17:35.136Z,14.53
2019-04-14T12:18:38.997Z,14.45
2019-04-14T12:19:43.018Z,13.32
2019-04-14T12:20:47.182Z,13.83
2019-04-14T12:21:51.804Z,13.72
2019-04-14T12:22:55.989Z,13.53
2019-04-14T12:24:00.112Z,14.25
2019-04-14T12:25:04.751Z,13.62
2019-04-14T12:26:09.335Z,13.68
2019-04-14T12:27:13.271Z,13.95
2019-04-14T12:28:17.554Z,13.53
2019-04-14T12:29:21.514Z,11.95
2019-04-14T12:30:26.819Z,14.33
2019-04-14T12:31:31.025Z,14.40
2019-04-14T12:32:35.392Z,14.78
2019-04-14T12:33:39.598Z,14.85
2019-04-14T12:34:43.939Z,14.85
2019-04-14T12:35:49.070Z,14.05
2019-04-14T12:36:53.079Z,14.05
2019-04-14T12:37:57.398Z,14.60
2019-04-14T12:39:01.854Z,14.98
2019-04-14T12:40:07.369Z,12.90
2019-04-14T12:41:15.496Z,13.40
2019-04-14T12:42:34.216Z,13.65
2019-04-14T12:44:15.329Z,12.58
2019-04-14T12:45:34.490Z,14.20
2019-04-14T12:46:57.369Z,13.50
2019-04-14T12:48:22.530Z,13.35
2019-04-14T12:49:30.644Z,13.60
2019-04-14T12:50:37.600Z,12.60
2019-04-14T12:52:00.516Z,12.07
2019-04-14T12:53:04.539Z,14.18
2019-04-14T12:54:08.539Z,14.13
2019-04-14T12:55:13.044Z,13.98
2019-04-14T12:56:19.617Z,14.15
2019-04-14T12:57:31.732Z,13.48
2019-04-14T12:58:58.044Z,13.75
2019-04-14T13:00:02.037Z,12.13
2019-04-14T13:01:09.230Z,8.68
2019-04-14T13:02:38.316Z,12.82
2019-04-14T13:03:42.653Z,12.70
2019-04-14T13:04:46.739Z,13.58
2019-04-14T13:05:50.924Z,13.30
2019-04-14T13:06:54.776Z,13.45
2019-04-14T13:07:58.959Z,14.10
2019-04-14T13:09:04.033Z,12.18
2019-04-14T13:10:08.755Z,13.90
2019-04-14T13:11:13.034Z,12.55
2019-04-14T13:12:17.260Z,12.65
2019-04-14T13:13:21.124Z,13.95
2019-04-14T13:14:25.623Z,8.30
2019-04-14T13:15:29.543Z,13.80
2019-04-14T13:16:33.832Z,14.10
2019-04-14T13:17:37.689Z,13.48
2019-04-14T13:18:42.487Z,14.47
2019-04-14T13:19:46.420Z,14.70
2019-04-14T13:20:50.666Z,15.28
2019-04-14T13:21:54.594Z,14.30
2019-04-14T13:22:58.774Z,14.75
2019-04-14T13:24:02.776Z,14.78
2019-04-14T13:25:06.989Z,15.25
2019-04-14T13:26:11.380Z,15.43
2019-04-14T13:27:15.388Z,14.98
2019-04-14T13:28:19.245Z,13.48
2019-04-14T13:29:23.659Z,12.90
2019-04-14T13:30:31.145Z,15.55
2019-04-14T13:31:35.408Z,14.38
2019-04-14T13:32:39.341Z,11.43
2019-04-14T13:33:43.281Z,13.28
2019-04-14T13:34:47.426Z,14.07
2019-04-14T13:35:51.352Z,14.40
2019-04-14T13:36:55.368Z,13.62
2019-04-14T13:37:59.332Z,10.48
2019-04-14T13:39:05.412Z,14.05
2019-04-14T13:40:11.668Z,15.00
2019-04-14T13:41:15.973Z,14.75
2019-04-14T13:42:19.851Z,14.40
2019-04-14T13:43:23.969Z,15.32
2019-04-14T13:44:28.471Z,13.83
2019-04-14T13:45:32.459Z,14.80
2019-04-14T13:46:36.719Z,13.58
2019-04-14T13:47:41.584Z,15.08
2019-04-14T13:48:45.928Z,14.23
2019-04-14T13:49:49.870Z,14.60
2019-04-14T13:50:53.709Z,15.15
2019-04-14T13:51:57.648Z,15.78
2019-04-14T13:53:01.744Z,13.70
2019-04-14T13:54:05.996Z,15.13
2019-04-14T13:55:10.482Z,14.75
2019-04-14T13:56:14.324Z,14.47
2019-04-14T13:57:18.264Z,15.08
2019-04-14T13:58:22.759Z,15.18
2019-04-14T13:59:26.901Z,14.33
2019-04-14T14:00:31.099Z,14.30
2019-04-14T14:01:35.443Z,15.38
2019-04-14T14:02:39.948Z,14.23
2019-04-14T14:03:44.075Z,15.88
2019-04-14T14:04:48.175Z,15.30
2019-04-14T14:05:52.330Z,15.60
2019-04-14T14:06:56.195Z,14.20
2019-04-14T14:08:00.661Z,13.83
2019-04-14T14:09:10.952Z,15.08
2019-04-14T14:10:15.563Z,15.83
2019-04-14T14:11:37.453Z,14.80
2019-04-14T14:13:07.138Z,15.15
2019-04-14T14:14:18.744Z,14.73
2019-04-14T14:15:40.945Z,15.08
2019-04-14T14:17:02.110Z,15.25
2019-04-14T14:18:28.636Z,15.48
2019-04-14T14:19:37.060Z,15.00
2019-04-14T14:20:59.361Z,15.03
2019-04-14T14:22:10.779Z,13.58
2019-04-14T14:23:34.042Z,14.35
2019-04-14T14:25:00.876Z,15.40
2019-04-14T14:26:08.029Z,15.23
2019-04-14T14:27:12.059Z,14.65
2019-04-14T14:28:16.773Z,14.53
2019-04-14T14:29:20.988Z,14.53
2019-04-14T14:30:24.993Z,14.85
2019-04-14T14:31:28.925Z,12.35
2019-04-14T14:32:35.088Z,14.00
2019-04-14T14:33:39.099Z,15.28
2019-04-14T14:34:43.050Z,15.18
2019-04-14T14:35:47.529Z,15.93
2019-04-14T14:36:51.529Z,14.73
2019-04-14T14:37:55.400Z,15.72
2019-04-14T14:38:59.495Z,15.40
2019-04-14T14:40:03.768Z,13.98
2019-04-14T14:41:09.784Z,15.65
2019-04-14T14:42:13.963Z,15.20
2019-04-14T14:43:18.158Z,14.55
2019-04-14T14:44:23.723Z,15.38
2019-04-14T14:45:39.523Z,16.40
2019-04-14T14:47:12.006Z,16.93
2019-04-14T14:48:25.071Z,9.18
2019-04-14T14:49:47.051Z,15.00
2019-04-14T14:51:10.240Z,15.45
2019-04-14T14:52:15.940Z,15.08
2019-04-14T14:53:22.191Z,15.55